メインページ
METAR-TAF:

METAR-TAF

空港 :

Custer Airport

モンロー, ミシガン州, アメリカ合衆国

緯度: 41-56-24N, 経度: 083-26-05W, 海抜: 188m

現時点の気象観測

当レポートは10分前の05:15(UTC)に作成
無風
気温 3°C
湿度 87%
気圧 1018 hPa
視程: 16.1km
晴天

METAR: KTTF 040515Z AUTO 00000KT 10SM CLR 03/01 A3005 RMK AO2 T00260013

時間: 01:25 (05:25 UTC)


TAF: 見つかりません

4,000以上の空港の気象観測と天気予報(METAR報とTAF報)

利用可能な観測所は地図上に黄色い丸と赤い丸で示す。

丸の上にカーソルを重ねると観測所名を参照できる。

次にクリックすると気象観測と天気予報を参照できる。

マップの切り替え:黒色「×」印の緑ボタンをクリックして拡大、「-」印の緑ボタンをクリックして縮小、緑色の三角印をクリックして隣りの地図に切り替え


METAR-TAF: